createdAt,value
2022-11-01T00:01:40.220Z,4.28
2022-11-01T00:04:08.785Z,4.55
2022-11-01T00:06:36.816Z,4.63
2022-11-01T00:09:05.020Z,4.45
2022-11-01T00:13:59.786Z,4.35
2022-11-01T00:16:27.498Z,4.18
2022-11-01T00:18:54.930Z,4.28
2022-11-01T00:21:22.345Z,4.13
2022-11-01T00:23:49.761Z,3.90
2022-11-01T00:26:22.601Z,3.88
2022-11-01T00:28:50.986Z,4.95
2022-11-01T00:31:20.106Z,4.35
2022-11-01T00:33:47.723Z,3.90
2022-11-01T00:36:15.533Z,4.53
2022-11-01T00:38:42.936Z,5.32
2022-11-01T00:41:10.556Z,4.72
2022-11-01T00:43:37.972Z,4.05
2022-11-01T00:46:05.510Z,5.25
2022-11-01T00:48:33.090Z,4.88
2022-11-01T00:51:00.484Z,5.45
2022-11-01T00:53:27.880Z,4.10
2022-11-01T00:56:03.754Z,4.53
2022-11-01T00:58:31.580Z,3.50
2022-11-01T01:00:59.747Z,4.13
2022-11-01T01:05:54.833Z,3.23
2022-11-01T01:08:22.938Z,3.70
2022-11-01T01:10:50.452Z,2.90
2022-11-01T01:13:18.089Z,3.25
2022-11-01T01:15:45.502Z,2.90
2022-11-01T01:18:13.324Z,3.25
2022-11-01T01:20:40.810Z,2.95
2022-11-01T01:23:08.431Z,3.20
2022-11-01T01:25:40.206Z,3.22
2022-11-01T01:28:08.088Z,3.05
2022-11-01T01:30:39.234Z,3.13
2022-11-01T01:33:06.763Z,3.67
2022-11-01T01:35:34.201Z,3.70
2022-11-01T01:38:01.780Z,4.03
2022-11-01T01:40:29.593Z,3.85
2022-11-01T01:42:57.517Z,4.32
2022-11-01T01:45:32.012Z,3.95
2022-11-01T01:48:23.153Z,3.88
2022-11-01T01:50:57.134Z,4.20
2022-11-01T01:53:35.921Z,3.72
2022-11-01T01:56:09.777Z,4.68
2022-11-01T01:58:45.880Z,4.50
2022-11-01T02:01:13.566Z,4.70
2022-11-01T02:03:42.841Z,5.78
2022-11-01T02:06:18.545Z,4.95
2022-11-01T02:08:55.469Z,5.00
2022-11-01T02:11:23.402Z,4.32
2022-11-01T02:13:50.930Z,5.43
2022-11-01T02:16:36.713Z,5.50
2022-11-01T02:19:22.825Z,4.63
2022-11-01T02:22:20.649Z,4.50
2022-11-01T02:25:24.762Z,4.65
2022-11-01T02:28:14.297Z,4.70
2022-11-01T02:30:46.690Z,4.90
2022-11-01T02:33:29.979Z,4.70
2022-11-01T02:36:04.165Z,4.57
2022-11-01T02:39:10.619Z,3.75
2022-11-01T02:42:09.084Z,2.95
2022-11-01T02:44:41.737Z,2.30
2022-11-01T02:47:11.866Z,2.95
2022-11-01T02:49:42.980Z,2.80
2022-11-01T02:52:21.934Z,1.92
2022-11-01T02:54:53.700Z,2.20
2022-11-01T02:57:39.268Z,2.13
2022-11-01T03:00:36.581Z,1.83
2022-11-01T03:03:15.712Z,1.27
2022-11-01T03:06:00.914Z,1.52
2022-11-01T03:08:50.932Z,1.73
2022-11-01T03:11:35.173Z,2.05
2022-11-01T03:14:20.503Z,2.35
2022-11-01T03:16:53.927Z,2.45
2022-11-01T03:19:30.007Z,2.25
2022-11-01T03:22:02.858Z,2.53
2022-11-01T03:24:40.367Z,3.08
2022-11-01T03:27:20.876Z,2.95
2022-11-01T03:29:57.292Z,3.30
2022-11-01T03:32:29.936Z,3.88
2022-11-01T03:35:00.236Z,4.15
2022-11-01T03:37:30.606Z,3.70
2022-11-01T03:40:02.863Z,3.78
2022-11-01T03:42:32.356Z,3.80
2022-11-01T03:45:06.525Z,4.05
2022-11-01T03:47:35.501Z,3.95
2022-11-01T03:50:15.151Z,4.32
2022-11-01T03:52:42.986Z,4.38
2022-11-01T03:55:20.415Z,4.10
2022-11-01T03:57:48.748Z,4.28
2022-11-01T04:00:21.728Z,3.72
2022-11-01T04:02:51.185Z,4.07
2022-11-01T04:05:21.923Z,3.80
2022-11-01T04:07:51.377Z,3.75
2022-11-01T04:10:20.209Z,3.88
2022-11-01T04:12:49.990Z,4.13
2022-11-01T04:15:37.825Z,3.45
2022-11-01T04:18:25.868Z,3.33
2022-11-01T04:20:53.917Z,4.05
2022-11-01T04:23:21.586Z,4.35
2022-11-01T04:25:48.997Z,3.47
2022-11-01T04:28:16.526Z,4.30
2022-11-01T04:30:43.974Z,3.58
2022-11-01T04:33:11.410Z,3.55
2022-11-01T04:35:39.116Z,3.33
2022-11-01T04:38:06.992Z,3.38
2022-11-01T04:40:34.549Z,3.60
2022-11-01T04:43:02.517Z,3.33
2022-11-01T04:45:30.135Z,3.50
2022-11-01T04:48:16.943Z,3.22
2022-11-01T04:50:45.901Z,3.53
2022-11-01T04:53:13.897Z,3.33
2022-11-01T04:55:41.390Z,3.50
2022-11-01T04:58:10.747Z,3.30
2022-11-01T05:00:38.791Z,3.53
2022-11-01T05:03:07.940Z,3.33
2022-11-01T05:05:35.917Z,3.35
2022-11-01T05:08:08.840Z,3.40
2022-11-01T05:10:38.590Z,3.13
2022-11-01T05:13:06.307Z,2.63
2022-11-01T05:15:36.935Z,3.50
2022-11-01T05:18:07.360Z,3.30
2022-11-01T05:20:34.772Z,3.92
2022-11-01T05:23:04.142Z,3.58
2022-11-01T05:25:35.400Z,3.63
2022-11-01T05:28:08.715Z,3.67
2022-11-01T05:30:37.195Z,3.80
2022-11-01T05:33:06.227Z,3.45
2022-11-01T05:35:35.124Z,4.20
2022-11-01T05:38:04.462Z,4.10
2022-11-01T05:40:32.800Z,4.70
2022-11-01T05:43:00.543Z,4.72
2022-11-01T05:45:28.198Z,4.88
2022-11-01T05:47:56.750Z,5.50
2022-11-01T05:50:24.485Z,5.10
2022-11-01T05:52:51.866Z,4.57
2022-11-01T05:55:19.422Z,5.43
2022-11-01T06:00:19.181Z,4.65
2022-11-01T06:02:46.649Z,5.13
2022-11-01T06:05:14.178Z,4.50
2022-11-01T06:07:41.592Z,5.40
2022-11-01T06:10:09.251Z,5.23
2022-11-01T06:12:36.685Z,6.30
2022-11-01T06:15:04.418Z,5.38
2022-11-01T06:17:31.819Z,5.57
2022-11-01T06:19:59.657Z,5.77
2022-11-01T06:22:27.232Z,6.10
2022-11-01T06:24:54.689Z,4.88
2022-11-01T06:27:22.110Z,5.57
2022-11-01T06:29:49.522Z,6.03
2022-11-01T06:32:16.932Z,5.28
2022-11-01T06:34:45.076Z,6.15
2022-11-01T06:37:13.013Z,5.88
2022-11-01T06:39:40.404Z,5.47
2022-11-01T06:42:08.690Z,5.45
2022-11-01T06:47:03.469Z,5.72
2022-11-01T06:49:31.698Z,5.20
2022-11-01T06:54:26.434Z,5.47
2022-11-01T06:56:53.940Z,5.38
2022-11-01T06:59:21.418Z,5.60
2022-11-01T07:01:49.151Z,5.13
2022-11-01T07:04:16.635Z,5.03
2022-11-01T07:06:44.657Z,5.80
2022-11-01T07:09:12.054Z,5.85
2022-11-01T07:11:39.538Z,6.10
2022-11-01T07:14:06.933Z,5.85
2022-11-01T07:16:34.385Z,6.72
2022-11-01T07:19:01.933Z,5.50
2022-11-01T07:21:29.372Z,6.07
2022-11-01T07:23:56.826Z,6.40
2022-11-01T07:26:24.500Z,5.80
2022-11-01T07:28:51.908Z,6.35
2022-11-01T07:31:19.365Z,5.90
2022-11-01T07:33:46.772Z,5.88
2022-11-01T07:36:14.160Z,5.97
2022-11-01T07:38:41.559Z,6.00
2022-11-01T07:41:09.242Z,6.13
2022-11-01T07:43:38.535Z,7.05
2022-11-01T07:46:07.264Z,5.45
2022-11-01T07:48:36.693Z,5.63
2022-11-01T07:51:06.085Z,5.97
2022-11-01T07:53:34.265Z,6.13
2022-11-01T07:56:02.501Z,5.10
2022-11-01T07:58:30.068Z,6.07
2022-11-01T08:00:57.660Z,5.90
2022-11-01T08:03:25.149Z,5.20
2022-11-01T08:05:55.711Z,5.15
2022-11-01T08:08:23.162Z,5.32
2022-11-01T08:10:50.658Z,6.30
2022-11-01T08:13:21.215Z,5.43
2022-11-01T08:15:50.286Z,5.47
2022-11-01T08:18:18.900Z,5.45
2022-11-01T08:20:46.341Z,4.72
2022-11-01T08:23:14.098Z,5.68
2022-11-01T08:25:41.772Z,5.50
2022-11-01T08:28:15.449Z,5.78
2022-11-01T08:30:44.425Z,5.00
2022-11-01T08:33:11.974Z,5.20
2022-11-01T08:35:39.918Z,5.43
2022-11-01T08:38:07.360Z,5.45
2022-11-01T08:40:34.867Z,5.38
2022-11-01T08:43:02.890Z,4.70
2022-11-01T08:47:59.741Z,4.45
2022-11-01T08:50:27.688Z,4.85
2022-11-01T08:52:55.305Z,4.60
2022-11-01T08:55:23.201Z,4.68
2022-11-01T08:57:50.775Z,5.40
2022-11-01T09:00:18.431Z,4.65
2022-11-01T09:02:46.137Z,5.07
2022-11-01T09:05:13.551Z,4.85
2022-11-01T09:07:41.205Z,5.50
2022-11-01T09:10:09.286Z,4.43
2022-11-01T09:12:37.214Z,4.60
2022-11-01T09:15:05.820Z,5.40
2022-11-01T09:17:33.328Z,4.82
2022-11-01T09:20:00.764Z,4.50
2022-11-01T09:22:29.046Z,4.25
2022-11-01T09:24:58.585Z,5.28
2022-11-01T09:27:25.964Z,4.95
2022-11-01T09:29:53.660Z,5.80
2022-11-01T09:32:21.403Z,5.07
2022-11-01T09:34:51.565Z,5.35
2022-11-01T09:37:19.023Z,5.47
2022-11-01T09:39:46.528Z,5.25
2022-11-01T09:42:39.713Z,5.72
2022-11-01T09:45:20.160Z,5.75
2022-11-01T09:47:53.250Z,5.45
2022-11-01T09:50:37.306Z,5.72
2022-11-01T09:53:18.892Z,6.03
2022-11-01T09:56:04.189Z,5.13
2022-11-01T09:58:46.914Z,5.10
2022-11-01T10:01:17.446Z,5.60
2022-11-01T10:04:20.259Z,5.32
2022-11-01T10:06:57.956Z,5.20
2022-11-01T10:09:49.844Z,6.00
2022-11-01T10:12:46.584Z,5.35
2022-11-01T10:15:35.702Z,4.45
2022-11-01T10:18:36.741Z,4.72
2022-11-01T10:21:12.697Z,5.00
2022-11-01T10:23:51.970Z,5.43
2022-11-01T10:26:28.997Z,4.65
2022-11-01T10:29:31.440Z,4.60
2022-11-01T10:32:00.620Z,4.50
2022-11-01T10:34:36.427Z,4.35
2022-11-01T10:37:26.950Z,4.30
2022-11-01T10:40:02.888Z,3.42
2022-11-01T10:42:33.880Z,3.53
2022-11-01T10:45:07.261Z,3.75
2022-11-01T10:47:34.832Z,2.83
2022-11-01T10:50:13.230Z,2.53
2022-11-01T10:52:53.362Z,1.85
2022-11-01T10:55:35.433Z,1.88
2022-11-01T10:58:07.433Z,2.25
2022-11-01T11:00:39.938Z,1.98
2022-11-01T11:03:34.109Z,1.70
2022-11-01T11:06:06.740Z,2.20
2022-11-01T11:08:36.394Z,2.15
2022-11-01T11:11:07.792Z,2.63
2022-11-01T11:13:35.659Z,2.50
2022-11-01T11:16:05.964Z,2.85
2022-11-01T11:18:55.373Z,3.05
2022-11-01T11:21:27.794Z,2.67
2022-11-01T11:23:55.727Z,2.92
2022-11-01T11:26:25.873Z,2.40
2022-11-01T11:28:56.786Z,2.88
2022-11-01T11:31:28.710Z,2.90
2022-11-01T11:34:23.736Z,2.60
2022-11-01T11:36:52.366Z,2.85
2022-11-01T11:39:30.085Z,3.00
2022-11-01T11:42:20.549Z,3.10
2022-11-01T11:44:55.628Z,3.22
2022-11-01T11:47:34.548Z,3.13
2022-11-01T11:50:16.719Z,4.25
2022-11-01T11:52:44.229Z,3.45
2022-11-01T11:55:29.668Z,3.55
2022-11-01T11:57:57.720Z,3.50
2022-11-01T12:00:28.353Z,4.53
2022-11-01T12:02:55.989Z,3.67
2022-11-01T12:05:28.773Z,3.58
2022-11-01T12:07:57.889Z,3.00
2022-11-01T12:10:38.648Z,3.30
2022-11-01T12:13:27.102Z,2.90
2022-11-01T12:16:12.831Z,2.40
2022-11-01T12:18:46.782Z,2.85
2022-11-01T12:21:23.174Z,3.20
2022-11-01T12:23:56.141Z,4.00
2022-11-01T12:26:27.257Z,3.50
2022-11-01T12:29:26.883Z,3.80
2022-11-01T12:32:00.102Z,3.88
2022-11-01T12:34:32.268Z,4.68
2022-11-01T12:37:16.083Z,4.00
2022-11-01T12:39:57.025Z,4.82
2022-11-01T12:42:29.266Z,4.28
2022-11-01T12:45:04.478Z,4.20
2022-11-01T12:47:41.992Z,5.55
2022-11-01T12:50:28.753Z,5.43
2022-11-01T12:52:59.606Z,5.03
2022-11-01T12:55:32.259Z,4.97
2022-11-01T12:57:59.965Z,4.80
2022-11-01T13:00:43.123Z,5.20
2022-11-01T13:03:41.705Z,5.95
2022-11-01T13:06:36.835Z,5.80
2022-11-01T13:09:07.002Z,4.90
2022-11-01T13:12:12.736Z,5.38
2022-11-01T13:15:00.894Z,5.55
2022-11-01T13:17:40.171Z,5.80
2022-11-01T13:20:14.595Z,6.60
2022-11-01T13:22:54.332Z,6.72
2022-11-01T13:25:40.681Z,3.97
2022-11-01T13:28:18.549Z,3.42
2022-11-01T13:30:58.251Z,2.53
2022-11-01T13:33:42.708Z,2.78
2022-11-01T13:36:34.501Z,2.70
2022-11-01T13:39:22.132Z,2.60
2022-11-01T13:42:03.231Z,2.65
2022-11-01T13:44:37.785Z,2.13
2022-11-01T13:47:14.790Z,2.45
2022-11-01T13:50:00.833Z,1.73
2022-11-01T13:52:32.386Z,1.80
2022-11-01T13:55:05.917Z,1.70
2022-11-01T13:57:34.265Z,1.65
2022-11-01T14:00:09.600Z,1.50
2022-11-01T14:02:55.027Z,1.33
2022-11-01T14:05:34.705Z,1.10
2022-11-01T14:08:05.363Z,1.15
2022-11-01T14:10:33.041Z,1.42
2022-11-01T14:13:15.702Z,0.88
2022-11-01T14:15:55.071Z,1.40
2022-11-01T14:18:22.721Z,1.35
2022-11-01T14:20:52.499Z,1.10
2022-11-01T14:23:29.001Z,1.17
2022-11-01T14:26:18.230Z,1.50
2022-11-01T14:28:47.825Z,1.60
2022-11-01T14:31:18.095Z,1.50
2022-11-01T14:33:48.340Z,1.50
2022-11-01T14:36:21.425Z,1.70
2022-11-01T14:39:06.899Z,1.80
2022-11-01T14:41:37.973Z,1.58
2022-11-01T14:44:18.448Z,1.80
2022-11-01T14:46:49.333Z,1.75
2022-11-01T14:49:30.518Z,1.90
2022-11-01T14:52:06.724Z,2.28
2022-11-01T14:54:49.915Z,2.10
2022-11-01T14:57:32.503Z,2.03
2022-11-01T15:00:17.881Z,2.25
2022-11-01T15:02:45.457Z,2.03
2022-11-01T15:05:16.742Z,2.45
2022-11-01T15:07:51.009Z,1.98
2022-11-01T15:10:18.797Z,2.20
2022-11-01T15:12:58.539Z,2.40
2022-11-01T15:15:27.907Z,2.47
2022-11-01T15:18:02.805Z,2.25
2022-11-01T15:20:43.406Z,2.60
2022-11-01T15:23:17.935Z,2.40
2022-11-01T15:25:53.162Z,2.22
2022-11-01T15:28:29.930Z,2.45
2022-11-01T15:31:00.897Z,1.88
2022-11-01T15:33:32.509Z,2.42
2022-11-01T15:36:06.692Z,2.88
2022-11-01T15:38:36.342Z,2.53
2022-11-01T15:41:29.707Z,2.83
2022-11-01T15:44:00.937Z,3.22
2022-11-01T15:46:40.500Z,3.17
2022-11-01T15:49:12.560Z,3.38
2022-11-01T15:51:48.909Z,3.30
2022-11-01T15:54:31.847Z,3.10
2022-11-01T15:57:03.539Z,3.67
2022-11-01T15:59:49.525Z,3.30
2022-11-01T16:02:27.941Z,3.40
2022-11-01T16:04:56.614Z,3.67
2022-11-01T16:07:26.465Z,4.10
2022-11-01T16:09:58.609Z,4.10
2022-11-01T16:12:32.237Z,4.10
2022-11-01T16:15:19.036Z,4.60
2022-11-01T16:17:46.916Z,4.63
2022-11-01T16:20:33.966Z,4.15
2022-11-01T16:23:09.107Z,4.70
2022-11-01T16:25:38.349Z,4.63
2022-11-01T16:28:11.530Z,4.60
2022-11-01T16:30:53.065Z,4.38
2022-11-01T16:33:20.453Z,4.35
2022-11-01T16:36:21.186Z,4.15
2022-11-01T16:38:53.430Z,4.65
2022-11-01T16:41:37.956Z,4.68
2022-11-01T16:44:14.530Z,5.07
2022-11-01T16:46:44.336Z,4.20
2022-11-01T16:49:24.067Z,4.20
2022-11-01T16:51:54.511Z,4.60
2022-11-01T16:54:22.538Z,4.63
2022-11-01T16:56:53.318Z,4.85
2022-11-01T16:59:33.287Z,4.30
2022-11-01T17:02:03.768Z,4.75
2022-11-01T17:04:31.347Z,4.70
2022-11-01T17:06:59.116Z,4.43
2022-11-01T17:09:30.867Z,4.40
2022-11-01T17:11:59.046Z,3.80
2022-11-01T17:14:26.602Z,4.05
2022-11-01T17:16:56.244Z,4.35
2022-11-01T17:19:31.827Z,3.90
2022-11-01T17:22:02.601Z,4.57
2022-11-01T17:24:31.036Z,4.65
2022-11-01T17:27:01.236Z,4.07
2022-11-01T17:29:29.579Z,4.80
2022-11-01T17:31:57.171Z,4.68
2022-11-01T17:34:26.446Z,4.53
2022-11-01T17:36:54.745Z,5.35
2022-11-01T17:41:49.586Z,5.43
2022-11-01T17:44:17.533Z,5.87
2022-11-01T17:46:45.176Z,4.50
2022-11-01T17:49:16.809Z,3.90
2022-11-01T17:51:44.301Z,3.15
2022-11-01T17:54:12.023Z,3.28
2022-11-01T17:56:39.617Z,3.50
2022-11-01T17:59:08.634Z,3.30
2022-11-01T18:01:38.623Z,2.63
2022-11-01T18:04:07.369Z,2.78
2022-11-01T18:06:35.762Z,2.95
2022-11-01T18:09:18.071Z,2.55
2022-11-01T18:11:52.278Z,2.40
2022-11-01T18:14:45.233Z,2.17
2022-11-01T18:17:24.326Z,2.50
2022-11-01T18:20:25.903Z,2.33
2022-11-01T18:22:57.679Z,2.70
2022-11-01T18:25:44.099Z,2.47
2022-11-01T18:28:18.257Z,2.70
2022-11-01T18:30:55.099Z,2.28
2022-11-01T18:33:35.171Z,2.75
2022-11-01T18:36:17.980Z,2.28
2022-11-01T18:39:16.276Z,2.42
2022-11-01T18:41:46.234Z,2.63
2022-11-01T18:44:14.609Z,2.80
2022-11-01T18:49:15.508Z,2.92
2022-11-01T18:51:44.477Z,3.50
2022-11-01T18:54:23.275Z,3.25
2022-11-01T18:56:57.025Z,3.30
2022-11-01T18:59:32.785Z,3.33
2022-11-01T19:02:19.391Z,4.10
2022-11-01T19:04:48.301Z,3.40
2022-11-01T19:07:35.184Z,3.55
2022-11-01T19:10:22.001Z,3.47
2022-11-01T19:12:54.718Z,3.25
2022-11-01T19:15:28.153Z,4.00
2022-11-01T19:18:04.514Z,4.15
2022-11-01T19:20:35.565Z,4.30
2022-11-01T19:23:11.115Z,3.63
2022-11-01T19:25:38.694Z,3.78
2022-11-01T19:28:17.927Z,4.80
2022-11-01T19:30:51.169Z,3.63
2022-11-01T19:33:37.488Z,3.85
2022-11-01T19:36:14.419Z,3.70
2022-11-01T19:38:45.003Z,4.07
2022-11-01T19:41:20.370Z,4.38
2022-11-01T19:43:50.266Z,4.30
2022-11-01T19:46:20.918Z,4.38
2022-11-01T19:48:49.004Z,3.83
2022-11-01T19:51:22.850Z,4.13
2022-11-01T19:53:51.425Z,4.30
2022-11-01T19:56:25.471Z,3.95
2022-11-01T19:59:00.611Z,5.15
2022-11-01T20:01:41.253Z,3.95
2022-11-01T20:04:29.058Z,4.75
2022-11-01T20:07:10.820Z,3.25
2022-11-01T20:09:41.430Z,2.80
2022-11-01T20:12:09.607Z,3.20
2022-11-01T20:17:05.031Z,3.35
2022-11-01T20:19:32.573Z,3.13
2022-11-01T20:22:00.173Z,2.83
2022-11-01T20:24:28.141Z,2.47
2022-11-01T20:26:55.680Z,2.15
2022-11-01T20:29:23.259Z,1.98
2022-11-01T20:31:50.785Z,2.03
2022-11-01T20:34:18.307Z,2.70
2022-11-01T20:37:02.172Z,2.83
2022-11-01T20:39:33.129Z,2.20
2022-11-01T20:42:00.744Z,1.98
2022-11-01T20:44:28.154Z,2.55
2022-11-01T20:46:55.543Z,2.10
2022-11-01T20:49:23.060Z,1.90
2022-11-01T20:51:50.683Z,2.30
2022-11-01T20:54:18.368Z,1.50
2022-11-01T20:56:45.952Z,1.92
2022-11-01T20:59:15.822Z,2.72
2022-11-01T21:01:46.365Z,2.13
2022-11-01T21:04:16.985Z,1.58
2022-11-01T21:06:44.548Z,2.20
2022-11-01T21:09:23.973Z,2.40
2022-11-01T21:11:51.887Z,2.20
2022-11-01T21:14:20.432Z,2.28
2022-11-01T21:16:48.636Z,2.47
2022-11-01T21:19:25.603Z,3.08
2022-11-01T21:21:56.577Z,2.80
2022-11-01T21:24:30.069Z,2.83
2022-11-01T21:27:08.925Z,3.42
2022-11-01T21:29:37.476Z,3.42
2022-11-01T21:32:29.666Z,3.45
2022-11-01T21:34:58.375Z,2.88
2022-11-01T21:37:29.215Z,3.08
2022-11-01T21:40:04.914Z,3.63
2022-11-01T21:42:35.912Z,2.85
2022-11-01T21:45:26.516Z,3.60
2022-11-01T21:47:54.075Z,3.30
2022-11-01T21:50:22.677Z,3.90
2022-11-01T21:52:50.076Z,3.75
2022-11-01T21:55:17.490Z,3.60
2022-11-01T21:57:44.890Z,4.03
2022-11-01T22:00:15.328Z,4.13
2022-11-01T22:02:43.071Z,4.28
2022-11-01T22:05:10.565Z,4.15
2022-11-01T22:07:38.161Z,4.18
2022-11-01T22:10:06.025Z,4.28
2022-11-01T22:12:33.405Z,4.47
2022-11-01T22:15:00.817Z,3.92
2022-11-01T22:17:28.270Z,3.67
2022-11-01T22:19:55.662Z,4.18
2022-11-01T22:22:23.108Z,3.88
2022-11-01T22:24:50.509Z,3.65
2022-11-01T22:27:20.391Z,4.40
2022-11-01T22:29:47.934Z,4.43
2022-11-01T22:32:21.130Z,4.37
2022-11-01T22:34:48.614Z,4.30
2022-11-01T22:37:16.008Z,3.95
2022-11-01T22:39:43.523Z,4.60
2022-11-01T22:42:13.251Z,3.80
2022-11-01T22:44:43.196Z,4.57
2022-11-01T22:47:27.540Z,3.90
2022-11-01T22:49:58.485Z,4.20
2022-11-01T22:52:34.751Z,4.13
2022-11-01T22:55:07.902Z,3.65
2022-11-01T22:57:41.886Z,3.40
2022-11-01T23:00:33.859Z,4.25
2022-11-01T23:03:27.450Z,3.75
2022-11-01T23:05:58.843Z,3.58
2022-11-01T23:08:32.805Z,3.08
2022-11-01T23:11:01.603Z,3.78
2022-11-01T23:13:48.482Z,3.65
2022-11-01T23:16:38.449Z,4.18
2022-11-01T23:19:13.145Z,3.33
2022-11-01T23:21:40.568Z,3.92
2022-11-01T23:24:08.213Z,3.92
2022-11-01T23:26:35.615Z,3.88
2022-11-01T23:29:03.173Z,3.97
2022-11-01T23:31:30.697Z,3.25
2022-11-01T23:33:58.586Z,3.58
2022-11-01T23:36:38.895Z,3.08
2022-11-01T23:39:12.068Z,2.72
2022-11-01T23:41:42.412Z,2.90
2022-11-01T23:44:24.903Z,3.33
2022-11-01T23:46:52.982Z,2.75
2022-11-01T23:49:24.009Z,2.78
2022-11-01T23:51:52.037Z,2.75
2022-11-01T23:54:24.463Z,2.63
2022-11-01T23:56:52.384Z,3.05
2022-11-01T23:59:19.761Z,2.30
